sensor_id;sensor_type;location;lat;lon;timestamp;P1;durP1;ratioP1;P2;durP2;ratioP2
7179;SDS011;3631;42.152;24.756;2023-03-03T00:00:04;57.07;;;26.27;;
7179;SDS011;3631;42.152;24.756;2023-03-03T00:02:32;52.63;;;25.37;;
7179;SDS011;3631;42.152;24.756;2023-03-03T00:04:59;53.50;;;26.27;;
7179;SDS011;3631;42.152;24.756;2023-03-03T00:07:27;52.37;;;26.67;;
7179;SDS011;3631;42.152;24.756;2023-03-03T00:09:54;57.37;;;26.33;;
7179;SDS011;3631;42.152;24.756;2023-03-03T00:12:23;54.17;;;26.00;;
7179;SDS011;3631;42.152;24.756;2023-03-03T00:14:51;45.50;;;25.73;;
7179;SDS011;3631;42.152;24.756;2023-03-03T00:17:20;47.37;;;24.77;;
7179;SDS011;3631;42.152;24.756;2023-03-03T00:19:48;52.63;;;24.57;;
7179;SDS011;3631;42.152;24.756;2023-03-03T00:22:27;47.27;;;23.63;;
7179;SDS011;3631;42.152;24.756;2023-03-03T00:24:57;49.63;;;24.70;;
7179;SDS011;3631;42.152;24.756;2023-03-03T00:27:26;55.30;;;25.83;;
7179;SDS011;3631;42.152;24.756;2023-03-03T00:29:56;51.97;;;25.47;;
7179;SDS011;3631;42.152;24.756;2023-03-03T00:32:25;49.57;;;25.00;;
7179;SDS011;3631;42.152;24.756;2023-03-03T00:34:54;45.53;;;24.70;;
7179;SDS011;3631;42.152;24.756;2023-03-03T00:37:30;50.80;;;26.07;;
7179;SDS011;3631;42.152;24.756;2023-03-03T00:40:02;53.13;;;26.47;;
7179;SDS011;3631;42.152;24.756;2023-03-03T00:42:42;48.97;;;25.70;;
7179;SDS011;3631;42.152;24.756;2023-03-03T00:45:17;53.40;;;25.80;;
7179;SDS011;3631;42.152;24.756;2023-03-03T00:47:52;53.97;;;25.70;;
7179;SDS011;3631;42.152;24.756;2023-03-03T00:50:29;62.97;;;27.23;;
7179;SDS011;3631;42.152;24.756;2023-03-03T00:53:03;45.07;;;24.07;;
7179;SDS011;3631;42.152;24.756;2023-03-03T00:55:32;46.70;;;25.20;;
7179;SDS011;3631;42.152;24.756;2023-03-03T00:58:00;50.00;;;24.63;;
7179;SDS011;3631;42.152;24.756;2023-03-03T01:00:27;54.50;;;25.27;;
7179;SDS011;3631;42.152;24.756;2023-03-03T01:02:54;52.60;;;24.87;;
7179;SDS011;3631;42.152;24.756;2023-03-03T01:05:21;48.30;;;24.23;;
7179;SDS011;3631;42.152;24.756;2023-03-03T01:07:48;51.67;;;24.23;;
7179;SDS011;3631;42.152;24.756;2023-03-03T01:10:16;47.90;;;23.47;;
7179;SDS011;3631;42.152;24.756;2023-03-03T01:12:43;49.77;;;23.43;;
7179;SDS011;3631;42.152;24.756;2023-03-03T01:15:11;50.73;;;24.23;;
7179;SDS011;3631;42.152;24.756;2023-03-03T01:17:40;45.90;;;23.73;;
7179;SDS011;3631;42.152;24.756;2023-03-03T01:20:08;52.57;;;23.50;;
7179;SDS011;3631;42.152;24.756;2023-03-03T01:22:36;47.37;;;24.93;;
7179;SDS011;3631;42.152;24.756;2023-03-03T01:25:03;48.27;;;22.80;;
7179;SDS011;3631;42.152;24.756;2023-03-03T01:27:32;48.43;;;23.47;;
7179;SDS011;3631;42.152;24.756;2023-03-03T01:30:01;52.23;;;24.33;;
7179;SDS011;3631;42.152;24.756;2023-03-03T01:32:28;43.90;;;23.43;;
7179;SDS011;3631;42.152;24.756;2023-03-03T01:34:55;49.70;;;24.80;;
7179;SDS011;3631;42.152;24.756;2023-03-03T01:37:22;48.37;;;25.13;;
7179;SDS011;3631;42.152;24.756;2023-03-03T01:39:49;52.57;;;24.53;;
7179;SDS011;3631;42.152;24.756;2023-03-03T01:42:16;48.27;;;23.80;;
7179;SDS011;3631;42.152;24.756;2023-03-03T01:44:45;53.90;;;24.93;;
7179;SDS011;3631;42.152;24.756;2023-03-03T01:47:12;56.53;;;25.73;;
7179;SDS011;3631;42.152;24.756;2023-03-03T01:49:41;52.30;;;24.53;;
7179;SDS011;3631;42.152;24.756;2023-03-03T01:52:14;51.07;;;25.20;;
7179;SDS011;3631;42.152;24.756;2023-03-03T01:54:48;44.03;;;23.03;;
7179;SDS011;3631;42.152;24.756;2023-03-03T01:57:20;49.57;;;25.50;;
7179;SDS011;3631;42.152;24.756;2023-03-03T01:59:52;50.93;;;24.97;;
7179;SDS011;3631;42.152;24.756;2023-03-03T02:02:21;52.47;;;25.87;;
7179;SDS011;3631;42.152;24.756;2023-03-03T02:04:49;50.40;;;24.30;;
7179;SDS011;3631;42.152;24.756;2023-03-03T02:07:16;56.07;;;23.73;;
7179;SDS011;3631;42.152;24.756;2023-03-03T02:09:50;52.63;;;26.40;;
7179;SDS011;3631;42.152;24.756;2023-03-03T02:12:21;46.93;;;23.53;;
7179;SDS011;3631;42.152;24.756;2023-03-03T02:14:55;52.07;;;24.70;;
7179;SDS011;3631;42.152;24.756;2023-03-03T02:17:22;49.80;;;25.07;;
7179;SDS011;3631;42.152;24.756;2023-03-03T02:19:51;54.73;;;25.13;;
7179;SDS011;3631;42.152;24.756;2023-03-03T02:22:30;50.20;;;26.13;;
7179;SDS011;3631;42.152;24.756;2023-03-03T02:25:05;53.27;;;24.43;;
7179;SDS011;3631;42.152;24.756;2023-03-03T02:27:38;60.50;;;25.63;;
7179;SDS011;3631;42.152;24.756;2023-03-03T02:30:09;51.77;;;24.73;;
7179;SDS011;3631;42.152;24.756;2023-03-03T02:32:39;62.20;;;25.30;;
7179;SDS011;3631;42.152;24.756;2023-03-03T02:35:19;45.60;;;24.33;;
7179;SDS011;3631;42.152;24.756;2023-03-03T02:37:54;52.17;;;23.93;;
7179;SDS011;3631;42.152;24.756;2023-03-03T02:40:25;57.33;;;26.63;;
7179;SDS011;3631;42.152;24.756;2023-03-03T02:42:58;52.37;;;24.20;;
7179;SDS011;3631;42.152;24.756;2023-03-03T02:45:30;46.40;;;24.93;;
7179;SDS011;3631;42.152;24.756;2023-03-03T02:47:57;51.93;;;24.87;;
7179;SDS011;3631;42.152;24.756;2023-03-03T02:50:24;48.13;;;24.77;;
7179;SDS011;3631;42.152;24.756;2023-03-03T02:52:51;51.57;;;26.37;;
7179;SDS011;3631;42.152;24.756;2023-03-03T02:55:18;50.83;;;26.40;;
7179;SDS011;3631;42.152;24.756;2023-03-03T02:57:45;47.20;;;25.77;;
7179;SDS011;3631;42.152;24.756;2023-03-03T03:02:42;57.73;;;27.27;;
7179;SDS011;3631;42.152;24.756;2023-03-03T03:05:09;55.37;;;26.63;;
7179;SDS011;3631;42.152;24.756;2023-03-03T03:07:36;57.10;;;27.23;;
7179;SDS011;3631;42.152;24.756;2023-03-03T03:10:03;54.73;;;27.67;;
7179;SDS011;3631;42.152;24.756;2023-03-03T03:12:30;51.17;;;25.87;;
7179;SDS011;3631;42.152;24.756;2023-03-03T03:14:57;60.10;;;26.50;;
7179;SDS011;3631;42.152;24.756;2023-03-03T03:17:26;62.47;;;27.87;;
7179;SDS011;3631;42.152;24.756;2023-03-03T03:19:52;56.23;;;27.67;;
7179;SDS011;3631;42.152;24.756;2023-03-03T03:22:19;56.00;;;27.83;;
7179;SDS011;3631;42.152;24.756;2023-03-03T03:24:46;56.73;;;27.83;;
7179;SDS011;3631;42.152;24.756;2023-03-03T03:27:13;56.33;;;27.20;;
7179;SDS011;3631;42.152;24.756;2023-03-03T03:29:40;60.20;;;28.63;;
7179;SDS011;3631;42.152;24.756;2023-03-03T03:32:07;50.17;;;27.53;;
7179;SDS011;3631;42.152;24.756;2023-03-03T03:34:35;56.67;;;28.07;;
7179;SDS011;3631;42.152;24.756;2023-03-03T03:37:02;60.53;;;26.90;;
7179;SDS011;3631;42.152;24.756;2023-03-03T03:39:29;55.07;;;28.00;;
7179;SDS011;3631;42.152;24.756;2023-03-03T03:41:56;54.87;;;27.33;;
7179;SDS011;3631;42.152;24.756;2023-03-03T03:44:22;53.30;;;28.90;;
7179;SDS011;3631;42.152;24.756;2023-03-03T03:46:50;56.10;;;29.00;;
7179;SDS011;3631;42.152;24.756;2023-03-03T03:49:17;57.10;;;29.37;;
7179;SDS011;3631;42.152;24.756;2023-03-03T03:51:45;62.97;;;28.37;;
7179;SDS011;3631;42.152;24.756;2023-03-03T03:54:12;56.73;;;29.80;;
7179;SDS011;3631;42.152;24.756;2023-03-03T03:56:39;60.43;;;28.87;;
7179;SDS011;3631;42.152;24.756;2023-03-03T03:59:06;62.77;;;28.80;;
7179;SDS011;3631;42.152;24.756;2023-03-03T04:01:33;54.10;;;28.37;;
7179;SDS011;3631;42.152;24.756;2023-03-03T04:04:00;60.77;;;28.33;;
7179;SDS011;3631;42.152;24.756;2023-03-03T04:06:28;55.33;;;28.40;;
7179;SDS011;3631;42.152;24.756;2023-03-03T04:08:56;56.70;;;30.03;;
7179;SDS011;3631;42.152;24.756;2023-03-03T04:11:23;54.73;;;28.80;;
7179;SDS011;3631;42.152;24.756;2023-03-03T04:13:50;63.27;;;28.93;;
7179;SDS011;3631;42.152;24.756;2023-03-03T04:16:17;57.13;;;28.63;;
7179;SDS011;3631;42.152;24.756;2023-03-03T04:18:43;57.73;;;28.50;;
7179;SDS011;3631;42.152;24.756;2023-03-03T04:21:11;60.60;;;30.53;;
7179;SDS011;3631;42.152;24.756;2023-03-03T04:23:38;70.27;;;33.27;;
7179;SDS011;3631;42.152;24.756;2023-03-03T04:26:06;67.87;;;31.60;;
7179;SDS011;3631;42.152;24.756;2023-03-03T04:28:33;66.07;;;32.60;;
7179;SDS011;3631;42.152;24.756;2023-03-03T04:31:00;65.73;;;30.27;;
7179;SDS011;3631;42.152;24.756;2023-03-03T04:33:27;67.80;;;32.80;;
7179;SDS011;3631;42.152;24.756;2023-03-03T04:35:54;64.60;;;31.30;;
7179;SDS011;3631;42.152;24.756;2023-03-03T04:38:21;64.10;;;30.83;;
7179;SDS011;3631;42.152;24.756;2023-03-03T04:40:48;71.77;;;32.67;;
7179;SDS011;3631;42.152;24.756;2023-03-03T04:43:16;68.73;;;31.67;;
7179;SDS011;3631;42.152;24.756;2023-03-03T04:45:43;59.67;;;31.13;;
7179;SDS011;3631;42.152;24.756;2023-03-03T04:48:10;60.60;;;29.50;;
7179;SDS011;3631;42.152;24.756;2023-03-03T04:50:37;59.53;;;28.43;;
7179;SDS011;3631;42.152;24.756;2023-03-03T04:53:04;62.77;;;29.73;;
7179;SDS011;3631;42.152;24.756;2023-03-03T04:55:31;53.90;;;28.17;;
7179;SDS011;3631;42.152;24.756;2023-03-03T04:57:58;58.93;;;28.13;;
7179;SDS011;3631;42.152;24.756;2023-03-03T05:00:27;58.10;;;28.53;;
7179;SDS011;3631;42.152;24.756;2023-03-03T05:02:54;61.90;;;28.13;;
7179;SDS011;3631;42.152;24.756;2023-03-03T05:05:21;61.40;;;28.20;;
7179;SDS011;3631;42.152;24.756;2023-03-03T05:07:47;58.00;;;29.37;;
7179;SDS011;3631;42.152;24.756;2023-03-03T05:10:14;49.63;;;26.60;;
7179;SDS011;3631;42.152;24.756;2023-03-03T05:12:42;48.97;;;26.73;;
7179;SDS011;3631;42.152;24.756;2023-03-03T05:15:09;60.60;;;29.33;;
7179;SDS011;3631;42.152;24.756;2023-03-03T05:17:38;60.20;;;27.90;;
7179;SDS011;3631;42.152;24.756;2023-03-03T05:20:05;59.73;;;29.47;;
7179;SDS011;3631;42.152;24.756;2023-03-03T05:22:34;62.40;;;29.73;;
7179;SDS011;3631;42.152;24.756;2023-03-03T05:25:01;54.73;;;29.80;;
7179;SDS011;3631;42.152;24.756;2023-03-03T05:27:28;56.17;;;30.00;;
7179;SDS011;3631;42.152;24.756;2023-03-03T05:29:55;58.53;;;31.87;;
7179;SDS011;3631;42.152;24.756;2023-03-03T05:32:21;62.10;;;32.10;;
7179;SDS011;3631;42.152;24.756;2023-03-03T05:34:50;60.87;;;32.10;;
7179;SDS011;3631;42.152;24.756;2023-03-03T05:37:17;64.50;;;32.67;;
7179;SDS011;3631;42.152;24.756;2023-03-03T05:39:44;61.93;;;32.17;;
7179;SDS011;3631;42.152;24.756;2023-03-03T05:42:11;62.37;;;31.87;;
7179;SDS011;3631;42.152;24.756;2023-03-03T05:44:38;63.33;;;32.23;;
7179;SDS011;3631;42.152;24.756;2023-03-03T05:47:05;61.10;;;31.90;;
7179;SDS011;3631;42.152;24.756;2023-03-03T05:49:32;65.73;;;34.47;;
7179;SDS011;3631;42.152;24.756;2023-03-03T05:52:00;74.07;;;34.60;;
7179;SDS011;3631;42.152;24.756;2023-03-03T05:54:27;67.27;;;35.13;;
7179;SDS011;3631;42.152;24.756;2023-03-03T05:56:54;71.47;;;36.27;;
7179;SDS011;3631;42.152;24.756;2023-03-03T05:59:22;69.63;;;35.00;;
7179;SDS011;3631;42.152;24.756;2023-03-03T06:01:49;70.77;;;36.07;;
7179;SDS011;3631;42.152;24.756;2023-03-03T06:04:16;66.83;;;34.17;;
7179;SDS011;3631;42.152;24.756;2023-03-03T06:06:43;72.83;;;36.47;;
7179;SDS011;3631;42.152;24.756;2023-03-03T06:09:11;61.97;;;32.40;;
7179;SDS011;3631;42.152;24.756;2023-03-03T06:11:38;62.07;;;29.17;;
7179;SDS011;3631;42.152;24.756;2023-03-03T06:14:05;61.87;;;33.17;;
7179;SDS011;3631;42.152;24.756;2023-03-03T06:16:31;71.30;;;40.80;;
7179;SDS011;3631;42.152;24.756;2023-03-03T06:18:58;69.53;;;38.73;;
7179;SDS011;3631;42.152;24.756;2023-03-03T06:21:25;59.60;;;29.90;;
7179;SDS011;3631;42.152;24.756;2023-03-03T06:23:52;55.40;;;29.20;;
7179;SDS011;3631;42.152;24.756;2023-03-03T06:26:20;53.77;;;28.43;;
7179;SDS011;3631;42.152;24.756;2023-03-03T06:28:47;58.50;;;27.63;;
7179;SDS011;3631;42.152;24.756;2023-03-03T06:31:18;57.47;;;32.13;;
7179;SDS011;3631;42.152;24.756;2023-03-03T06:33:45;52.03;;;29.47;;
7179;SDS011;3631;42.152;24.756;2023-03-03T06:36:11;51.40;;;28.27;;
7179;SDS011;3631;42.152;24.756;2023-03-03T06:38:38;52.70;;;28.53;;
7179;SDS011;3631;42.152;24.756;2023-03-03T06:41:05;51.40;;;28.20;;
7179;SDS011;3631;42.152;24.756;2023-03-03T06:43:34;48.53;;;28.03;;
7179;SDS011;3631;42.152;24.756;2023-03-03T06:46:01;52.60;;;29.17;;
7179;SDS011;3631;42.152;24.756;2023-03-03T06:48:29;48.47;;;28.47;;
7179;SDS011;3631;42.152;24.756;2023-03-03T06:50:57;50.53;;;27.83;;
7179;SDS011;3631;42.152;24.756;2023-03-03T06:53:24;46.87;;;28.37;;
7179;SDS011;3631;42.152;24.756;2023-03-03T06:55:51;52.13;;;28.50;;
7179;SDS011;3631;42.152;24.756;2023-03-03T06:58:20;48.03;;;25.67;;
7179;SDS011;3631;42.152;24.756;2023-03-03T07:00:51;39.83;;;24.03;;
7179;SDS011;3631;42.152;24.756;2023-03-03T07:03:20;45.73;;;25.07;;
7179;SDS011;3631;42.152;24.756;2023-03-03T07:05:49;42.20;;;24.33;;
7179;SDS011;3631;42.152;24.756;2023-03-03T07:08:18;46.93;;;25.93;;
7179;SDS011;3631;42.152;24.756;2023-03-03T07:10:47;40.47;;;24.13;;
7179;SDS011;3631;42.152;24.756;2023-03-03T07:13:16;41.53;;;24.23;;
7179;SDS011;3631;42.152;24.756;2023-03-03T07:15:45;43.47;;;27.90;;
7179;SDS011;3631;42.152;24.756;2023-03-03T07:18:24;49.20;;;25.73;;
7179;SDS011;3631;42.152;24.756;2023-03-03T07:20:59;46.37;;;27.30;;
7179;SDS011;3631;42.152;24.756;2023-03-03T07:23:39;52.67;;;27.90;;
7179;SDS011;3631;42.152;24.756;2023-03-03T07:26:08;44.00;;;25.43;;
7179;SDS011;3631;42.152;24.756;2023-03-03T07:28:39;53.53;;;29.23;;
7179;SDS011;3631;42.152;24.756;2023-03-03T07:34:12;55.43;;;30.23;;
7179;SDS011;3631;42.152;24.756;2023-03-03T07:36:45;50.37;;;28.47;;
7179;SDS011;3631;42.152;24.756;2023-03-03T07:39:24;50.30;;;28.53;;
7179;SDS011;3631;42.152;24.756;2023-03-03T07:42:01;44.30;;;25.57;;
7179;SDS011;3631;42.152;24.756;2023-03-03T07:44:40;47.43;;;25.47;;
7179;SDS011;3631;42.152;24.756;2023-03-03T07:47:20;42.33;;;23.60;;
7179;SDS011;3631;42.152;24.756;2023-03-03T07:49:51;42.37;;;25.47;;
7179;SDS011;3631;42.152;24.756;2023-03-03T07:52:23;46.90;;;25.10;;
7179;SDS011;3631;42.152;24.756;2023-03-03T07:54:55;51.87;;;28.40;;
7179;SDS011;3631;42.152;24.756;2023-03-03T07:57:24;120.73;;;68.23;;
7179;SDS011;3631;42.152;24.756;2023-03-03T07:59:54;67.10;;;40.47;;
7179;SDS011;3631;42.152;24.756;2023-03-03T08:02:33;44.83;;;25.33;;
7179;SDS011;3631;42.152;24.756;2023-03-03T08:08:13;38.60;;;21.77;;
7179;SDS011;3631;42.152;24.756;2023-03-03T08:10:47;35.73;;;22.87;;
7179;SDS011;3631;42.152;24.756;2023-03-03T08:13:16;44.57;;;24.93;;
7179;SDS011;3631;42.152;24.756;2023-03-03T08:15:45;35.57;;;20.33;;
7179;SDS011;3631;42.152;24.756;2023-03-03T08:18:22;38.93;;;21.10;;
7179;SDS011;3631;42.152;24.756;2023-03-03T08:20:54;61.93;;;37.93;;
7179;SDS011;3631;42.152;24.756;2023-03-03T08:23:22;37.37;;;21.17;;
7179;SDS011;3631;42.152;24.756;2023-03-03T08:25:50;34.40;;;19.37;;
7179;SDS011;3631;42.152;24.756;2023-03-03T08:28:17;35.67;;;21.37;;
7179;SDS011;3631;42.152;24.756;2023-03-03T08:30:45;38.33;;;21.53;;
7179;SDS011;3631;42.152;24.756;2023-03-03T08:33:13;31.27;;;18.20;;
7179;SDS011;3631;42.152;24.756;2023-03-03T08:35:40;34.40;;;18.60;;
7179;SDS011;3631;42.152;24.756;2023-03-03T08:38:09;46.43;;;21.00;;
7179;SDS011;3631;42.152;24.756;2023-03-03T08:40:37;32.37;;;18.30;;
7179;SDS011;3631;42.152;24.756;2023-03-03T08:43:04;29.60;;;16.77;;
7179;SDS011;3631;42.152;24.756;2023-03-03T08:45:31;26.37;;;16.50;;
7179;SDS011;3631;42.152;24.756;2023-03-03T08:47:59;35.80;;;19.60;;
7179;SDS011;3631;42.152;24.756;2023-03-03T08:50:26;34.93;;;19.20;;
7179;SDS011;3631;42.152;24.756;2023-03-03T08:52:54;27.23;;;17.30;;
7179;SDS011;3631;42.152;24.756;2023-03-03T08:55:23;33.83;;;17.57;;
7179;SDS011;3631;42.152;24.756;2023-03-03T08:57:49;31.27;;;18.73;;
7179;SDS011;3631;42.152;24.756;2023-03-03T09:00:17;27.97;;;18.13;;
7179;SDS011;3631;42.152;24.756;2023-03-03T09:02:46;33.17;;;18.83;;
7179;SDS011;3631;42.152;24.756;2023-03-03T09:05:13;32.20;;;18.77;;
7179;SDS011;3631;42.152;24.756;2023-03-03T09:07:41;37.07;;;20.90;;
7179;SDS011;3631;42.152;24.756;2023-03-03T09:10:10;33.87;;;18.53;;
7179;SDS011;3631;42.152;24.756;2023-03-03T09:12:42;31.77;;;18.83;;
7179;SDS011;3631;42.152;24.756;2023-03-03T09:15:17;33.90;;;18.90;;
7179;SDS011;3631;42.152;24.756;2023-03-03T09:17:46;36.73;;;20.73;;
7179;SDS011;3631;42.152;24.756;2023-03-03T09:20:20;40.03;;;24.73;;
7179;SDS011;3631;42.152;24.756;2023-03-03T09:22:59;34.40;;;21.93;;
7179;SDS011;3631;42.152;24.756;2023-03-03T09:25:50;37.83;;;23.40;;
7179;SDS011;3631;42.152;24.756;2023-03-03T09:28:21;39.03;;;21.83;;
7179;SDS011;3631;42.152;24.756;2023-03-03T09:30:50;28.83;;;19.97;;
7179;SDS011;3631;42.152;24.756;2023-03-03T09:33:23;31.47;;;18.20;;
7179;SDS011;3631;42.152;24.756;2023-03-03T09:35:52;31.50;;;18.80;;
7179;SDS011;3631;42.152;24.756;2023-03-03T09:38:31;29.37;;;17.33;;
7179;SDS011;3631;42.152;24.756;2023-03-03T09:41:23;22.73;;;14.13;;
7179;SDS011;3631;42.152;24.756;2023-03-03T09:44:16;25.63;;;13.77;;
7179;SDS011;3631;42.152;24.756;2023-03-03T09:47:08;20.40;;;13.17;;
7179;SDS011;3631;42.152;24.756;2023-03-03T09:49:48;27.20;;;14.00;;
7179;SDS011;3631;42.152;24.756;2023-03-03T09:52:26;22.33;;;13.20;;
7179;SDS011;3631;42.152;24.756;2023-03-03T09:55:10;21.97;;;14.67;;
7179;SDS011;3631;42.152;24.756;2023-03-03T09:57:58;28.87;;;16.63;;
7179;SDS011;3631;42.152;24.756;2023-03-03T10:00:48;34.77;;;19.20;;
7179;SDS011;3631;42.152;24.756;2023-03-03T10:03:29;32.00;;;21.23;;
7179;SDS011;3631;42.152;24.756;2023-03-03T10:06:18;35.87;;;21.27;;
7179;SDS011;3631;42.152;24.756;2023-03-03T10:08:57;35.40;;;20.67;;
7179;SDS011;3631;42.152;24.756;2023-03-03T10:11:35;40.27;;;23.40;;
7179;SDS011;3631;42.152;24.756;2023-03-03T10:14:10;37.33;;;23.27;;
7179;SDS011;3631;42.152;24.756;2023-03-03T10:19:44;34.13;;;20.20;;
7179;SDS011;3631;42.152;24.756;2023-03-03T10:22:18;34.60;;;22.23;;
7179;SDS011;3631;42.152;24.756;2023-03-03T10:24:53;50.07;;;28.50;;
7179;SDS011;3631;42.152;24.756;2023-03-03T10:27:46;40.47;;;24.43;;
7179;SDS011;3631;42.152;24.756;2023-03-03T10:30:24;36.43;;;22.73;;
7179;SDS011;3631;42.152;24.756;2023-03-03T10:33:02;30.70;;;19.83;;
7179;SDS011;3631;42.152;24.756;2023-03-03T10:35:52;37.83;;;21.47;;
7179;SDS011;3631;42.152;24.756;2023-03-03T10:38:40;34.30;;;20.63;;
7179;SDS011;3631;42.152;24.756;2023-03-03T10:41:21;38.70;;;21.93;;
7179;SDS011;3631;42.152;24.756;2023-03-03T10:44:14;38.03;;;21.57;;
7179;SDS011;3631;42.152;24.756;2023-03-03T10:46:51;34.27;;;21.53;;
7179;SDS011;3631;42.152;24.756;2023-03-03T10:49:29;34.20;;;19.67;;
7179;SDS011;3631;42.152;24.756;2023-03-03T10:52:16;36.33;;;21.47;;
7179;SDS011;3631;42.152;24.756;2023-03-03T10:55:03;37.40;;;22.53;;
7179;SDS011;3631;42.152;24.756;2023-03-03T10:57:44;54.07;;;28.93;;
7179;SDS011;3631;42.152;24.756;2023-03-03T11:00:20;42.93;;;24.63;;
7179;SDS011;3631;42.152;24.756;2023-03-03T11:02:55;45.07;;;25.83;;
7179;SDS011;3631;42.152;24.756;2023-03-03T11:05:45;35.70;;;20.87;;
7179;SDS011;3631;42.152;24.756;2023-03-03T11:08:17;46.13;;;26.20;;
7179;SDS011;3631;42.152;24.756;2023-03-03T11:10:51;55.40;;;29.73;;
7179;SDS011;3631;42.152;24.756;2023-03-03T11:13:27;47.90;;;27.57;;
7179;SDS011;3631;42.152;24.756;2023-03-03T11:16:10;45.17;;;26.17;;
7179;SDS011;3631;42.152;24.756;2023-03-03T11:18:48;41.57;;;23.77;;
7179;SDS011;3631;42.152;24.756;2023-03-03T11:21:29;38.07;;;23.73;;
7179;SDS011;3631;42.152;24.756;2023-03-03T11:24:18;36.27;;;21.43;;
7179;SDS011;3631;42.152;24.756;2023-03-03T11:27:00;35.17;;;22.13;;
7179;SDS011;3631;42.152;24.756;2023-03-03T11:32:32;44.00;;;25.03;;
7179;SDS011;3631;42.152;24.756;2023-03-03T11:35:18;96.87;;;44.00;;
7179;SDS011;3631;42.152;24.756;2023-03-03T11:37:55;48.87;;;27.57;;
7179;SDS011;3631;42.152;24.756;2023-03-03T11:40:29;37.67;;;21.40;;
7179;SDS011;3631;42.152;24.756;2023-03-03T11:43:06;33.93;;;21.37;;
7179;SDS011;3631;42.152;24.756;2023-03-03T11:45:38;49.37;;;28.93;;
7179;SDS011;3631;42.152;24.756;2023-03-03T11:48:12;33.97;;;22.57;;
7179;SDS011;3631;42.152;24.756;2023-03-03T11:50:45;34.70;;;21.73;;
7179;SDS011;3631;42.152;24.756;2023-03-03T11:53:25;41.80;;;25.83;;
7179;SDS011;3631;42.152;24.756;2023-03-03T11:56:02;38.13;;;21.33;;
7179;SDS011;3631;42.152;24.756;2023-03-03T11:58:41;32.17;;;21.37;;
7179;SDS011;3631;42.152;24.756;2023-03-03T12:01:14;34.40;;;22.20;;
7179;SDS011;3631;42.152;24.756;2023-03-03T12:03:48;49.97;;;31.53;;
7179;SDS011;3631;42.152;24.756;2023-03-03T12:06:24;39.70;;;25.13;;
7179;SDS011;3631;42.152;24.756;2023-03-03T12:09:02;36.23;;;22.17;;
7179;SDS011;3631;42.152;24.756;2023-03-03T12:11:47;36.27;;;22.37;;
7179;SDS011;3631;42.152;24.756;2023-03-03T12:14:21;41.50;;;24.53;;
7179;SDS011;3631;42.152;24.756;2023-03-03T12:17:01;35.43;;;21.43;;
7179;SDS011;3631;42.152;24.756;2023-03-03T12:19:37;35.13;;;22.00;;
7179;SDS011;3631;42.152;24.756;2023-03-03T12:25:26;37.03;;;20.87;;
7179;SDS011;3631;42.152;24.756;2023-03-03T12:28:02;33.77;;;21.50;;
7179;SDS011;3631;42.152;24.756;2023-03-03T12:30:40;37.10;;;22.63;;
7179;SDS011;3631;42.152;24.756;2023-03-03T12:33:21;37.63;;;21.07;;
7179;SDS011;3631;42.152;24.756;2023-03-03T12:36:00;35.90;;;21.00;;
7179;SDS011;3631;42.152;24.756;2023-03-03T12:38:37;36.70;;;21.03;;
7179;SDS011;3631;42.152;24.756;2023-03-03T12:41:14;35.57;;;24.10;;
7179;SDS011;3631;42.152;24.756;2023-03-03T12:43:51;38.57;;;24.20;;
7179;SDS011;3631;42.152;24.756;2023-03-03T12:46:24;48.23;;;28.20;;
7179;SDS011;3631;42.152;24.756;2023-03-03T12:49:00;42.00;;;24.87;;
7179;SDS011;3631;42.152;24.756;2023-03-03T12:51:30;30.97;;;19.77;;
7179;SDS011;3631;42.152;24.756;2023-03-03T12:57:01;35.63;;;25.10;;
7179;SDS011;3631;42.152;24.756;2023-03-03T12:59:38;39.53;;;25.30;;
7179;SDS011;3631;42.152;24.756;2023-03-03T13:02:24;24.17;;;18.37;;
7179;SDS011;3631;42.152;24.756;2023-03-03T13:05:01;26.10;;;17.50;;
7179;SDS011;3631;42.152;24.756;2023-03-03T13:07:40;30.63;;;21.37;;
7179;SDS011;3631;42.152;24.756;2023-03-03T13:10:15;29.60;;;18.73;;
7179;SDS011;3631;42.152;24.756;2023-03-03T13:12:51;25.03;;;16.60;;
7179;SDS011;3631;42.152;24.756;2023-03-03T13:15:26;30.50;;;19.73;;
7179;SDS011;3631;42.152;24.756;2023-03-03T13:17:58;29.77;;;20.63;;
7179;SDS011;3631;42.152;24.756;2023-03-03T13:20:39;21.13;;;16.17;;
7179;SDS011;3631;42.152;24.756;2023-03-03T13:23:16;53.77;;;31.07;;
7179;SDS011;3631;42.152;24.756;2023-03-03T13:25:54;37.20;;;23.37;;
7179;SDS011;3631;42.152;24.756;2023-03-03T13:28:27;35.33;;;23.47;;
7179;SDS011;3631;42.152;24.756;2023-03-03T13:31:01;24.13;;;16.30;;
7179;SDS011;3631;42.152;24.756;2023-03-03T13:33:34;20.57;;;16.03;;
7179;SDS011;3631;42.152;24.756;2023-03-03T13:36:02;20.50;;;15.50;;
7179;SDS011;3631;42.152;24.756;2023-03-03T13:38:34;19.70;;;14.63;;
7179;SDS011;3631;42.152;24.756;2023-03-03T13:41:06;26.40;;;17.20;;
7179;SDS011;3631;42.152;24.756;2023-03-03T13:43:44;22.90;;;15.93;;
7179;SDS011;3631;42.152;24.756;2023-03-03T13:46:16;25.37;;;16.30;;
7179;SDS011;3631;42.152;24.756;2023-03-03T13:49:01;23.03;;;15.53;;
7179;SDS011;3631;42.152;24.756;2023-03-03T13:51:41;22.17;;;15.13;;
7179;SDS011;3631;42.152;24.756;2023-03-03T13:54:15;17.90;;;15.10;;
7179;SDS011;3631;42.152;24.756;2023-03-03T13:57:01;17.17;;;13.40;;
7179;SDS011;3631;42.152;24.756;2023-03-03T13:59:47;16.60;;;14.03;;
7179;SDS011;3631;42.152;24.756;2023-03-03T14:05:22;28.83;;;16.33;;
7179;SDS011;3631;42.152;24.756;2023-03-03T14:07:56;24.37;;;16.00;;
7179;SDS011;3631;42.152;24.756;2023-03-03T14:10:27;22.67;;;14.70;;
7179;SDS011;3631;42.152;24.756;2023-03-03T14:12:59;22.00;;;15.93;;
7179;SDS011;3631;42.152;24.756;2023-03-03T14:15:32;26.53;;;14.67;;
7179;SDS011;3631;42.152;24.756;2023-03-03T14:18:04;26.17;;;15.87;;
7179;SDS011;3631;42.152;24.756;2023-03-03T14:20:50;19.20;;;14.93;;
7179;SDS011;3631;42.152;24.756;2023-03-03T14:23:18;17.37;;;14.37;;
7179;SDS011;3631;42.152;24.756;2023-03-03T14:25:55;20.30;;;14.37;;
7179;SDS011;3631;42.152;24.756;2023-03-03T14:28:25;22.57;;;15.43;;
7179;SDS011;3631;42.152;24.756;2023-03-03T14:30:55;13.93;;;12.30;;
7179;SDS011;3631;42.152;24.756;2023-03-03T14:33:29;17.67;;;14.33;;
7179;SDS011;3631;42.152;24.756;2023-03-03T14:36:03;16.30;;;13.27;;
7179;SDS011;3631;42.152;24.756;2023-03-03T14:38:36;18.90;;;14.13;;
7179;SDS011;3631;42.152;24.756;2023-03-03T14:41:17;15.63;;;12.93;;
7179;SDS011;3631;42.152;24.756;2023-03-03T14:43:55;19.13;;;14.97;;
7179;SDS011;3631;42.152;24.756;2023-03-03T14:46:35;17.27;;;15.00;;
7179;SDS011;3631;42.152;24.756;2023-03-03T14:49:04;18.17;;;15.00;;
7179;SDS011;3631;42.152;24.756;2023-03-03T14:51:42;14.80;;;13.17;;
7179;SDS011;3631;42.152;24.756;2023-03-03T14:54:21;16.60;;;13.50;;
7179;SDS011;3631;42.152;24.756;2023-03-03T14:57:00;18.83;;;14.50;;
7179;SDS011;3631;42.152;24.756;2023-03-03T14:59:32;18.17;;;14.57;;
7179;SDS011;3631;42.152;24.756;2023-03-03T15:02:07;15.70;;;13.03;;
7179;SDS011;3631;42.152;24.756;2023-03-03T15:04:52;18.50;;;14.60;;
7179;SDS011;3631;42.152;24.756;2023-03-03T15:07:41;21.40;;;15.97;;
7179;SDS011;3631;42.152;24.756;2023-03-03T15:10:09;16.63;;;14.67;;
7179;SDS011;3631;42.152;24.756;2023-03-03T15:12:38;17.43;;;14.07;;
7179;SDS011;3631;42.152;24.756;2023-03-03T15:15:10;17.53;;;14.87;;
7179;SDS011;3631;42.152;24.756;2023-03-03T15:17:52;19.53;;;14.63;;
7179;SDS011;3631;42.152;24.756;2023-03-03T15:20:23;19.63;;;15.43;;
7179;SDS011;3631;42.152;24.756;2023-03-03T15:22:59;15.97;;;14.27;;
7179;SDS011;3631;42.152;24.756;2023-03-03T15:25:37;15.20;;;13.60;;